sensor_id;sensor_type;location;lat;lon;timestamp;P1;durP1;ratioP1;P2;durP2;ratioP2
30149;SDS011;16962;48.646;9.026;2024-01-15T00:02:35;33.30;;;14.55;;
30149;SDS011;16962;48.646;9.026;2024-01-15T00:05:22;36.92;;;15.27;;
30149;SDS011;16962;48.646;9.026;2024-01-15T00:08:11;34.40;;;15.73;;
30149;SDS011;16962;48.646;9.026;2024-01-15T00:10:58;32.45;;;13.82;;
30149;SDS011;16962;48.646;9.026;2024-01-15T00:13:46;38.58;;;15.30;;
30149;SDS011;16962;48.646;9.026;2024-01-15T00:16:33;40.00;;;16.17;;
30149;SDS011;16962;48.646;9.026;2024-01-15T00:19:21;36.70;;;15.68;;
30149;SDS011;16962;48.646;9.026;2024-01-15T00:22:11;38.78;;;16.25;;
30149;SDS011;16962;48.646;9.026;2024-01-15T00:24:58;39.33;;;15.32;;
30149;SDS011;16962;48.646;9.026;2024-01-15T00:27:47;35.53;;;16.00;;
30149;SDS011;16962;48.646;9.026;2024-01-15T00:30:34;34.03;;;15.00;;
30149;SDS011;16962;48.646;9.026;2024-01-15T00:33:22;34.95;;;15.90;;
30149;SDS011;16962;48.646;9.026;2024-01-15T00:36:09;36.30;;;14.82;;
30149;SDS011;16962;48.646;9.026;2024-01-15T00:38:59;39.15;;;15.02;;
30149;SDS011;16962;48.646;9.026;2024-01-15T00:41:47;33.65;;;14.35;;
30149;SDS011;16962;48.646;9.026;2024-01-15T00:44:36;43.55;;;16.70;;
30149;SDS011;16962;48.646;9.026;2024-01-15T00:47:23;38.50;;;15.73;;
30149;SDS011;16962;48.646;9.026;2024-01-15T00:50:20;31.52;;;14.48;;
30149;SDS011;16962;48.646;9.026;2024-01-15T00:53:08;34.10;;;14.88;;
30149;SDS011;16962;48.646;9.026;2024-01-15T00:55:56;41.60;;;15.18;;
30149;SDS011;16962;48.646;9.026;2024-01-15T00:58:44;41.35;;;16.45;;
30149;SDS011;16962;48.646;9.026;2024-01-15T01:01:32;34.38;;;14.68;;
30149;SDS011;16962;48.646;9.026;2024-01-15T01:04:21;35.05;;;14.32;;
30149;SDS011;16962;48.646;9.026;2024-01-15T01:07:11;30.27;;;13.18;;
30149;SDS011;16962;48.646;9.026;2024-01-15T01:10:00;34.50;;;14.48;;
30149;SDS011;16962;48.646;9.026;2024-01-15T01:12:48;36.25;;;13.75;;
30149;SDS011;16962;48.646;9.026;2024-01-15T01:15:37;36.30;;;13.88;;
30149;SDS011;16962;48.646;9.026;2024-01-15T01:18:25;38.22;;;15.70;;
30149;SDS011;16962;48.646;9.026;2024-01-15T01:21:15;35.65;;;14.80;;
30149;SDS011;16962;48.646;9.026;2024-01-15T01:24:03;37.65;;;13.75;;
30149;SDS011;16962;48.646;9.026;2024-01-15T01:26:52;38.95;;;14.93;;
30149;SDS011;16962;48.646;9.026;2024-01-15T01:29:40;31.35;;;12.68;;
30149;SDS011;16962;48.646;9.026;2024-01-15T01:32:29;36.90;;;13.38;;
30149;SDS011;16962;48.646;9.026;2024-01-15T01:35:20;33.20;;;13.60;;
30149;SDS011;16962;48.646;9.026;2024-01-15T01:38:07;30.02;;;13.48;;
30149;SDS011;16962;48.646;9.026;2024-01-15T01:40:57;38.55;;;14.23;;
30149;SDS011;16962;48.646;9.026;2024-01-15T01:43:45;29.42;;;13.23;;
30149;SDS011;16962;48.646;9.026;2024-01-15T01:46:33;33.30;;;13.55;;
30149;SDS011;16962;48.646;9.026;2024-01-15T01:49:27;33.10;;;13.63;;
30149;SDS011;16962;48.646;9.026;2024-01-15T01:52:16;29.30;;;12.40;;
30149;SDS011;16962;48.646;9.026;2024-01-15T01:55:04;33.63;;;13.63;;
30149;SDS011;16962;48.646;9.026;2024-01-15T01:57:55;31.48;;;12.18;;
30149;SDS011;16962;48.646;9.026;2024-01-15T02:00:46;33.20;;;13.18;;
30149;SDS011;16962;48.646;9.026;2024-01-15T02:03:36;33.17;;;13.13;;
30149;SDS011;16962;48.646;9.026;2024-01-15T02:06:26;33.00;;;12.48;;
30149;SDS011;16962;48.646;9.026;2024-01-15T02:09:15;34.30;;;13.23;;
30149;SDS011;16962;48.646;9.026;2024-01-15T02:12:03;31.95;;;13.40;;
30149;SDS011;16962;48.646;9.026;2024-01-15T02:14:51;33.88;;;13.00;;
30149;SDS011;16962;48.646;9.026;2024-01-15T02:20:47;32.47;;;13.32;;
30149;SDS011;16962;48.646;9.026;2024-01-15T02:23:36;37.65;;;14.25;;
30149;SDS011;16962;48.646;9.026;2024-01-15T02:26:24;35.75;;;13.55;;
30149;SDS011;16962;48.646;9.026;2024-01-15T02:29:14;35.45;;;14.20;;
30149;SDS011;16962;48.646;9.026;2024-01-15T02:32:05;32.72;;;13.05;;
30149;SDS011;16962;48.646;9.026;2024-01-15T02:34:55;34.22;;;14.43;;
30149;SDS011;16962;48.646;9.026;2024-01-15T02:37:43;35.67;;;14.20;;
30149;SDS011;16962;48.646;9.026;2024-01-15T02:40:33;36.42;;;13.80;;
30149;SDS011;16962;48.646;9.026;2024-01-15T02:43:20;33.22;;;13.73;;
30149;SDS011;16962;48.646;9.026;2024-01-15T02:46:08;36.47;;;14.68;;
30149;SDS011;16962;48.646;9.026;2024-01-15T02:48:55;40.03;;;14.95;;
30149;SDS011;16962;48.646;9.026;2024-01-15T02:51:43;34.78;;;12.45;;
30149;SDS011;16962;48.646;9.026;2024-01-15T02:54:30;34.83;;;14.10;;
30149;SDS011;16962;48.646;9.026;2024-01-15T02:57:18;41.50;;;15.07;;
30149;SDS011;16962;48.646;9.026;2024-01-15T03:00:07;40.78;;;14.25;;
30149;SDS011;16962;48.646;9.026;2024-01-15T03:02:58;36.38;;;14.32;;
30149;SDS011;16962;48.646;9.026;2024-01-15T03:05:48;37.42;;;14.98;;
30149;SDS011;16962;48.646;9.026;2024-01-15T03:08:37;40.05;;;14.88;;
30149;SDS011;16962;48.646;9.026;2024-01-15T03:11:29;33.10;;;14.53;;
30149;SDS011;16962;48.646;9.026;2024-01-15T03:14:18;37.28;;;13.73;;
30149;SDS011;16962;48.646;9.026;2024-01-15T03:17:11;38.08;;;15.50;;
30149;SDS011;16962;48.646;9.026;2024-01-15T03:20:01;37.08;;;14.70;;
30149;SDS011;16962;48.646;9.026;2024-01-15T03:22:56;42.50;;;15.82;;
30149;SDS011;16962;48.646;9.026;2024-01-15T03:25:43;41.22;;;15.30;;
30149;SDS011;16962;48.646;9.026;2024-01-15T03:28:31;41.10;;;15.55;;
30149;SDS011;16962;48.646;9.026;2024-01-15T03:31:22;46.77;;;17.93;;
30149;SDS011;16962;48.646;9.026;2024-01-15T03:34:16;33.80;;;14.15;;
30149;SDS011;16962;48.646;9.026;2024-01-15T03:40:00;40.65;;;14.05;;
30149;SDS011;16962;48.646;9.026;2024-01-15T03:42:51;27.95;;;12.80;;
30149;SDS011;16962;48.646;9.026;2024-01-15T03:45:38;34.20;;;12.90;;
30149;SDS011;16962;48.646;9.026;2024-01-15T03:48:27;29.05;;;12.13;;
30149;SDS011;16962;48.646;9.026;2024-01-15T03:51:19;34.53;;;14.23;;
30149;SDS011;16962;48.646;9.026;2024-01-15T03:54:07;32.03;;;12.65;;
30149;SDS011;16962;48.646;9.026;2024-01-15T03:56:55;30.63;;;12.85;;
30149;SDS011;16962;48.646;9.026;2024-01-15T03:59:43;35.85;;;13.57;;
30149;SDS011;16962;48.646;9.026;2024-01-15T04:02:34;35.42;;;14.45;;
30149;SDS011;16962;48.646;9.026;2024-01-15T04:05:24;37.85;;;14.85;;
30149;SDS011;16962;48.646;9.026;2024-01-15T04:08:11;38.00;;;15.45;;
30149;SDS011;16962;48.646;9.026;2024-01-15T04:10:59;38.03;;;13.93;;
30149;SDS011;16962;48.646;9.026;2024-01-15T04:13:46;40.55;;;16.20;;
30149;SDS011;16962;48.646;9.026;2024-01-15T04:16:37;38.35;;;15.30;;
30149;SDS011;16962;48.646;9.026;2024-01-15T04:19:27;39.50;;;16.27;;
30149;SDS011;16962;48.646;9.026;2024-01-15T04:22:14;35.72;;;15.32;;
30149;SDS011;16962;48.646;9.026;2024-01-15T04:25:04;40.50;;;16.30;;
30149;SDS011;16962;48.646;9.026;2024-01-15T04:27:53;41.67;;;16.27;;
30149;SDS011;16962;48.646;9.026;2024-01-15T04:30:41;39.10;;;15.05;;
30149;SDS011;16962;48.646;9.026;2024-01-15T04:33:29;34.92;;;15.70;;
30149;SDS011;16962;48.646;9.026;2024-01-15T04:36:16;40.92;;;15.90;;
30149;SDS011;16962;48.646;9.026;2024-01-15T04:39:04;37.95;;;15.73;;
30149;SDS011;16962;48.646;9.026;2024-01-15T04:41:52;40.40;;;15.90;;
30149;SDS011;16962;48.646;9.026;2024-01-15T04:44:40;37.60;;;15.00;;
30149;SDS011;16962;48.646;9.026;2024-01-15T04:47:31;45.03;;;15.38;;
30149;SDS011;16962;48.646;9.026;2024-01-15T04:50:18;38.83;;;14.13;;
30149;SDS011;16962;48.646;9.026;2024-01-15T04:53:06;38.92;;;15.27;;
30149;SDS011;16962;48.646;9.026;2024-01-15T04:56:00;34.85;;;15.07;;
30149;SDS011;16962;48.646;9.026;2024-01-15T04:58:49;44.58;;;16.13;;
30149;SDS011;16962;48.646;9.026;2024-01-15T05:01:37;37.58;;;14.95;;
30149;SDS011;16962;48.646;9.026;2024-01-15T05:04:25;36.55;;;14.30;;
30149;SDS011;16962;48.646;9.026;2024-01-15T05:07:12;42.40;;;16.33;;
30149;SDS011;16962;48.646;9.026;2024-01-15T05:10:02;36.40;;;16.15;;
30149;SDS011;16962;48.646;9.026;2024-01-15T05:12:50;41.47;;;15.70;;
30149;SDS011;16962;48.646;9.026;2024-01-15T05:15:39;36.08;;;16.77;;
30149;SDS011;16962;48.646;9.026;2024-01-15T05:18:28;39.58;;;16.42;;
30149;SDS011;16962;48.646;9.026;2024-01-15T05:21:15;42.00;;;16.92;;
30149;SDS011;16962;48.646;9.026;2024-01-15T05:24:03;34.05;;;14.65;;
30149;SDS011;16962;48.646;9.026;2024-01-15T05:26:50;39.95;;;15.77;;
30149;SDS011;16962;48.646;9.026;2024-01-15T05:29:38;36.42;;;15.55;;
30149;SDS011;16962;48.646;9.026;2024-01-15T05:32:27;39.70;;;15.20;;
30149;SDS011;16962;48.646;9.026;2024-01-15T05:35:14;37.50;;;15.02;;
30149;SDS011;16962;48.646;9.026;2024-01-15T05:38:01;35.03;;;14.57;;
30149;SDS011;16962;48.646;9.026;2024-01-15T05:40:49;40.03;;;16.52;;
30149;SDS011;16962;48.646;9.026;2024-01-15T05:43:38;39.15;;;16.15;;
30149;SDS011;16962;48.646;9.026;2024-01-15T05:46:26;41.08;;;16.23;;
30149;SDS011;16962;48.646;9.026;2024-01-15T05:49:13;39.63;;;16.98;;
30149;SDS011;16962;48.646;9.026;2024-01-15T05:52:04;42.80;;;18.33;;
30149;SDS011;16962;48.646;9.026;2024-01-15T05:54:51;42.65;;;16.25;;
30149;SDS011;16962;48.646;9.026;2024-01-15T05:57:39;37.15;;;15.35;;
30149;SDS011;16962;48.646;9.026;2024-01-15T06:00:27;33.75;;;15.30;;
30149;SDS011;16962;48.646;9.026;2024-01-15T06:03:17;38.42;;;17.15;;
30149;SDS011;16962;48.646;9.026;2024-01-15T06:06:05;42.08;;;17.63;;
30149;SDS011;16962;48.646;9.026;2024-01-15T06:08:56;47.83;;;19.58;;
30149;SDS011;16962;48.646;9.026;2024-01-15T06:11:51;37.13;;;16.48;;
30149;SDS011;16962;48.646;9.026;2024-01-15T06:14:41;44.40;;;19.58;;
30149;SDS011;16962;48.646;9.026;2024-01-15T06:17:29;39.67;;;17.15;;
30149;SDS011;16962;48.646;9.026;2024-01-15T06:20:17;39.10;;;17.10;;
30149;SDS011;16962;48.646;9.026;2024-01-15T06:23:06;40.80;;;18.23;;
30149;SDS011;16962;48.646;9.026;2024-01-15T06:25:54;44.00;;;18.25;;
30149;SDS011;16962;48.646;9.026;2024-01-15T06:28:44;42.75;;;17.17;;
30149;SDS011;16962;48.646;9.026;2024-01-15T06:31:37;41.72;;;18.25;;
30149;SDS011;16962;48.646;9.026;2024-01-15T06:34:25;36.15;;;17.38;;
30149;SDS011;16962;48.646;9.026;2024-01-15T06:37:13;40.60;;;17.65;;
30149;SDS011;16962;48.646;9.026;2024-01-15T06:40:12;38.88;;;16.10;;
30149;SDS011;16962;48.646;9.026;2024-01-15T06:43:08;38.38;;;16.75;;
30149;SDS011;16962;48.646;9.026;2024-01-15T06:46:00;39.50;;;16.88;;
30149;SDS011;16962;48.646;9.026;2024-01-15T06:48:52;32.42;;;16.25;;
30149;SDS011;16962;48.646;9.026;2024-01-15T06:51:40;37.28;;;17.65;;
30149;SDS011;16962;48.646;9.026;2024-01-15T06:54:35;37.08;;;16.85;;
30149;SDS011;16962;48.646;9.026;2024-01-15T06:57:22;36.22;;;16.42;;
30149;SDS011;16962;48.646;9.026;2024-01-15T07:00:10;37.70;;;16.52;;
30149;SDS011;16962;48.646;9.026;2024-01-15T07:03:00;38.40;;;16.83;;
30149;SDS011;16962;48.646;9.026;2024-01-15T07:05:48;39.05;;;16.67;;
30149;SDS011;16962;48.646;9.026;2024-01-15T07:08:39;34.42;;;15.95;;
30149;SDS011;16962;48.646;9.026;2024-01-15T07:11:26;38.28;;;16.02;;
30149;SDS011;16962;48.646;9.026;2024-01-15T07:14:14;37.08;;;15.52;;
30149;SDS011;16962;48.646;9.026;2024-01-15T07:17:23;34.85;;;16.00;;
30149;SDS011;16962;48.646;9.026;2024-01-15T07:20:20;33.55;;;15.00;;
30149;SDS011;16962;48.646;9.026;2024-01-15T07:23:10;35.05;;;15.75;;
30149;SDS011;16962;48.646;9.026;2024-01-15T07:25:57;33.45;;;14.23;;
30149;SDS011;16962;48.646;9.026;2024-01-15T07:28:47;34.95;;;14.48;;
30149;SDS011;16962;48.646;9.026;2024-01-15T07:31:35;32.60;;;13.77;;
30149;SDS011;16962;48.646;9.026;2024-01-15T07:34:23;27.52;;;13.23;;
30149;SDS011;16962;48.646;9.026;2024-01-15T07:37:16;27.30;;;13.30;;
30149;SDS011;16962;48.646;9.026;2024-01-15T07:40:13;24.02;;;11.18;;
30149;SDS011;16962;48.646;9.026;2024-01-15T07:43:39;32.50;;;13.95;;
30149;SDS011;16962;48.646;9.026;2024-01-15T07:46:28;27.65;;;11.20;;
30149;SDS011;16962;48.646;9.026;2024-01-15T07:49:16;24.73;;;11.93;;
30149;SDS011;16962;48.646;9.026;2024-01-15T07:52:05;29.65;;;12.35;;
30149;SDS011;16962;48.646;9.026;2024-01-15T07:54:56;24.95;;;12.07;;
30149;SDS011;16962;48.646;9.026;2024-01-15T07:57:46;22.77;;;11.45;;
30149;SDS011;16962;48.646;9.026;2024-01-15T08:00:51;23.73;;;11.43;;
30149;SDS011;16962;48.646;9.026;2024-01-15T08:03:39;30.33;;;12.93;;
30149;SDS011;16962;48.646;9.026;2024-01-15T08:06:27;30.60;;;11.52;;
30149;SDS011;16962;48.646;9.026;2024-01-15T08:09:15;29.33;;;12.98;;
30149;SDS011;16962;48.646;9.026;2024-01-15T08:12:04;31.98;;;12.90;;
30149;SDS011;16962;48.646;9.026;2024-01-15T08:14:53;23.70;;;11.70;;
30149;SDS011;16962;48.646;9.026;2024-01-15T08:17:42;30.40;;;12.55;;
30149;SDS011;16962;48.646;9.026;2024-01-15T08:20:30;25.95;;;11.45;;
30149;SDS011;16962;48.646;9.026;2024-01-15T08:23:20;23.23;;;10.45;;
30149;SDS011;16962;48.646;9.026;2024-01-15T08:26:08;22.40;;;10.57;;
30149;SDS011;16962;48.646;9.026;2024-01-15T08:28:57;23.50;;;10.93;;
30149;SDS011;16962;48.646;9.026;2024-01-15T08:31:45;20.20;;;10.30;;
30149;SDS011;16962;48.646;9.026;2024-01-15T08:34:34;22.88;;;9.88;;
30149;SDS011;16962;48.646;9.026;2024-01-15T08:37:22;20.42;;;9.65;;
30149;SDS011;16962;48.646;9.026;2024-01-15T08:40:10;17.63;;;8.27;;
30149;SDS011;16962;48.646;9.026;2024-01-15T08:43:00;17.60;;;8.70;;
30149;SDS011;16962;48.646;9.026;2024-01-15T08:45:49;14.90;;;7.95;;
30149;SDS011;16962;48.646;9.026;2024-01-15T08:48:39;14.05;;;7.35;;
30149;SDS011;16962;48.646;9.026;2024-01-15T08:51:30;15.30;;;7.18;;
30149;SDS011;16962;48.646;9.026;2024-01-15T08:54:19;18.17;;;7.90;;
30149;SDS011;16962;48.646;9.026;2024-01-15T08:57:07;12.07;;;6.53;;
30149;SDS011;16962;48.646;9.026;2024-01-15T08:59:55;16.13;;;7.57;;
30149;SDS011;16962;48.646;9.026;2024-01-15T09:02:48;13.60;;;6.93;;
30149;SDS011;16962;48.646;9.026;2024-01-15T09:05:46;15.52;;;6.40;;
30149;SDS011;16962;48.646;9.026;2024-01-15T09:09:03;15.90;;;7.45;;
30149;SDS011;16962;48.646;9.026;2024-01-15T09:12:06;19.58;;;7.95;;
30149;SDS011;16962;48.646;9.026;2024-01-15T09:14:55;14.95;;;7.47;;
30149;SDS011;16962;48.646;9.026;2024-01-15T09:17:44;15.30;;;7.63;;
30149;SDS011;16962;48.646;9.026;2024-01-15T09:20:37;21.10;;;7.57;;
30149;SDS011;16962;48.646;9.026;2024-01-15T09:23:28;17.20;;;6.47;;
30149;SDS011;16962;48.646;9.026;2024-01-15T09:26:22;16.15;;;7.10;;
30149;SDS011;16962;48.646;9.026;2024-01-15T09:29:34;15.73;;;7.32;;
30149;SDS011;16962;48.646;9.026;2024-01-15T09:33:10;17.67;;;7.70;;
30149;SDS011;16962;48.646;9.026;2024-01-15T09:36:06;15.18;;;6.90;;
30149;SDS011;16962;48.646;9.026;2024-01-15T09:39:12;16.73;;;7.70;;
30149;SDS011;16962;48.646;9.026;2024-01-15T09:42:18;20.75;;;8.27;;
30149;SDS011;16962;48.646;9.026;2024-01-15T09:48:39;15.45;;;8.27;;
30149;SDS011;16962;48.646;9.026;2024-01-15T09:51:44;15.57;;;8.43;;
30149;SDS011;16962;48.646;9.026;2024-01-15T09:54:57;16.05;;;7.50;;
30149;SDS011;16962;48.646;9.026;2024-01-15T09:57:53;18.40;;;7.57;;
30149;SDS011;16962;48.646;9.026;2024-01-15T10:00:51;19.25;;;7.38;;
30149;SDS011;16962;48.646;9.026;2024-01-15T10:03:40;15.02;;;8.00;;
30149;SDS011;16962;48.646;9.026;2024-01-15T10:06:31;15.45;;;7.32;;
30149;SDS011;16962;48.646;9.026;2024-01-15T10:09:29;15.48;;;7.85;;
30149;SDS011;16962;48.646;9.026;2024-01-15T10:12:21;16.02;;;6.90;;
30149;SDS011;16962;48.646;9.026;2024-01-15T10:15:21;15.52;;;7.15;;
30149;SDS011;16962;48.646;9.026;2024-01-15T10:18:45;12.50;;;6.55;;
30149;SDS011;16962;48.646;9.026;2024-01-15T10:21:54;16.55;;;6.47;;
30149;SDS011;16962;48.646;9.026;2024-01-15T10:24:51;15.38;;;7.75;;
30149;SDS011;16962;48.646;9.026;2024-01-15T10:27:47;19.45;;;7.40;;
30149;SDS011;16962;48.646;9.026;2024-01-15T10:30:58;15.33;;;7.20;;
30149;SDS011;16962;48.646;9.026;2024-01-15T10:33:55;15.23;;;7.32;;
30149;SDS011;16962;48.646;9.026;2024-01-15T10:40:39;12.45;;;6.55;;
30149;SDS011;16962;48.646;9.026;2024-01-15T10:43:37;12.73;;;6.43;;
30149;SDS011;16962;48.646;9.026;2024-01-15T10:46:28;13.88;;;6.80;;
30149;SDS011;16962;48.646;9.026;2024-01-15T10:49:28;13.10;;;6.63;;
30149;SDS011;16962;48.646;9.026;2024-01-15T10:52:51;14.95;;;7.20;;
30149;SDS011;16962;48.646;9.026;2024-01-15T10:56:03;14.93;;;6.93;;
30149;SDS011;16962;48.646;9.026;2024-01-15T10:59:17;16.98;;;7.18;;
30149;SDS011;16962;48.646;9.026;2024-01-15T11:02:50;17.13;;;6.80;;
30149;SDS011;16962;48.646;9.026;2024-01-15T11:13:52;17.27;;;7.88;;
30149;SDS011;16962;48.646;9.026;2024-01-15T11:21:35;14.05;;;7.43;;
30149;SDS011;16962;48.646;9.026;2024-01-15T11:28:56;14.77;;;7.43;;
30149;SDS011;16962;48.646;9.026;2024-01-15T11:35:18;17.08;;;7.55;;
30149;SDS011;16962;48.646;9.026;2024-01-15T11:38:42;17.60;;;7.93;;
30149;SDS011;16962;48.646;9.026;2024-01-15T11:41:49;15.25;;;7.68;;
30149;SDS011;16962;48.646;9.026;2024-01-15T11:44:55;17.70;;;7.85;;
30149;SDS011;16962;48.646;9.026;2024-01-15T11:51:16;12.63;;;7.53;;
30149;SDS011;16962;48.646;9.026;2024-01-15T11:54:46;17.77;;;7.30;;
30149;SDS011;16962;48.646;9.026;2024-01-15T11:58:13;15.13;;;7.20;;
30149;SDS011;16962;48.646;9.026;2024-01-15T12:01:20;16.17;;;8.98;;
30149;SDS011;16962;48.646;9.026;2024-01-15T12:04:31;17.13;;;9.02;;
30149;SDS011;16962;48.646;9.026;2024-01-15T12:07:47;21.02;;;10.95;;
30149;SDS011;16962;48.646;9.026;2024-01-15T12:11:09;25.42;;;10.93;;
30149;SDS011;16962;48.646;9.026;2024-01-15T12:14:47;20.10;;;10.38;;
30149;SDS011;16962;48.646;9.026;2024-01-15T12:18:07;21.02;;;11.27;;
30149;SDS011;16962;48.646;9.026;2024-01-15T12:21:27;27.02;;;11.82;;
30149;SDS011;16962;48.646;9.026;2024-01-15T12:24:14;23.35;;;11.68;;
30149;SDS011;16962;48.646;9.026;2024-01-15T12:27:04;22.23;;;12.30;;
30149;SDS011;16962;48.646;9.026;2024-01-15T12:29:57;25.75;;;12.20;;
30149;SDS011;16962;48.646;9.026;2024-01-15T12:33:02;26.52;;;12.88;;
30149;SDS011;16962;48.646;9.026;2024-01-15T12:35:53;30.38;;;15.85;;
30149;SDS011;16962;48.646;9.026;2024-01-15T12:38:41;21.98;;;12.13;;
30149;SDS011;16962;48.646;9.026;2024-01-15T12:41:29;24.83;;;12.65;;
30149;SDS011;16962;48.646;9.026;2024-01-15T12:44:19;23.05;;;10.85;;
30149;SDS011;16962;48.646;9.026;2024-01-15T12:47:20;26.00;;;12.30;;
30149;SDS011;16962;48.646;9.026;2024-01-15T12:50:15;22.77;;;11.65;;
30149;SDS011;16962;48.646;9.026;2024-01-15T12:53:06;25.27;;;12.73;;
30149;SDS011;16962;48.646;9.026;2024-01-15T12:55:55;29.58;;;13.27;;
30149;SDS011;16962;48.646;9.026;2024-01-15T12:58:43;27.45;;;12.52;;
30149;SDS011;16962;48.646;9.026;2024-01-15T13:01:58;27.33;;;14.27;;
30149;SDS011;16962;48.646;9.026;2024-01-15T13:04:47;28.45;;;13.65;;
30149;SDS011;16962;48.646;9.026;2024-01-15T13:07:37;27.58;;;12.68;;
30149;SDS011;16962;48.646;9.026;2024-01-15T13:10:25;26.75;;;12.88;;
30149;SDS011;16962;48.646;9.026;2024-01-15T13:13:17;26.52;;;11.60;;
30149;SDS011;16962;48.646;9.026;2024-01-15T13:16:05;24.48;;;11.27;;
30149;SDS011;16962;48.646;9.026;2024-01-15T13:18:52;23.27;;;10.90;;
30149;SDS011;16962;48.646;9.026;2024-01-15T13:21:45;21.35;;;12.05;;
30149;SDS011;16962;48.646;9.026;2024-01-15T13:24:32;18.05;;;10.43;;
30149;SDS011;16962;48.646;9.026;2024-01-15T13:27:27;25.90;;;11.45;;
30149;SDS011;16962;48.646;9.026;2024-01-15T13:30:21;21.55;;;11.75;;
30149;SDS011;16962;48.646;9.026;2024-01-15T13:33:15;24.83;;;11.02;;
30149;SDS011;16962;48.646;9.026;2024-01-15T13:36:06;23.25;;;11.27;;
30149;SDS011;16962;48.646;9.026;2024-01-15T13:38:57;21.40;;;10.80;;
30149;SDS011;16962;48.646;9.026;2024-01-15T13:42:08;22.65;;;10.55;;
30149;SDS011;16962;48.646;9.026;2024-01-15T13:45:11;21.90;;;11.10;;
30149;SDS011;16962;48.646;9.026;2024-01-15T13:49:09;23.25;;;12.15;;
30149;SDS011;16962;48.646;9.026;2024-01-15T13:52:21;24.20;;;12.70;;
30149;SDS011;16962;48.646;9.026;2024-01-15T13:58:20;30.17;;;12.50;;
30149;SDS011;16962;48.646;9.026;2024-01-15T14:01:12;25.25;;;14.15;;
30149;SDS011;16962;48.646;9.026;2024-01-15T14:04:00;27.58;;;13.65;;
30149;SDS011;16962;48.646;9.026;2024-01-15T14:06:51;33.38;;;15.02;;
30149;SDS011;16962;48.646;9.026;2024-01-15T14:09:38;34.60;;;14.27;;
30149;SDS011;16962;48.646;9.026;2024-01-15T14:12:27;29.17;;;13.85;;
30149;SDS011;16962;48.646;9.026;2024-01-15T14:15:23;30.08;;;14.63;;
30149;SDS011;16962;48.646;9.026;2024-01-15T14:19:01;29.17;;;14.27;;
30149;SDS011;16962;48.646;9.026;2024-01-15T14:22:22;30.02;;;15.10;;
30149;SDS011;16962;48.646;9.026;2024-01-15T14:25:18;28.70;;;13.10;;
30149;SDS011;16962;48.646;9.026;2024-01-15T14:28:08;26.85;;;13.15;;
30149;SDS011;16962;48.646;9.026;2024-01-15T14:30:56;29.85;;;12.45;;
30149;SDS011;16962;48.646;9.026;2024-01-15T14:33:47;24.10;;;11.60;;
30149;SDS011;16962;48.646;9.026;2024-01-15T14:36:46;23.77;;;11.75;;
30149;SDS011;16962;48.646;9.026;2024-01-15T14:39:36;22.83;;;11.90;;
30149;SDS011;16962;48.646;9.026;2024-01-15T14:42:33;29.05;;;12.27;;
30149;SDS011;16962;48.646;9.026;2024-01-15T14:45:46;25.30;;;12.32;;
30149;SDS011;16962;48.646;9.026;2024-01-15T14:48:54;18.35;;;9.02;;
30149;SDS011;16962;48.646;9.026;2024-01-15T14:51:50;18.80;;;9.80;;
30149;SDS011;16962;48.646;9.026;2024-01-15T14:58:31;7.70;;;4.57;;
30149;SDS011;16962;48.646;9.026;2024-01-15T15:01:19;12.55;;;6.35;;
30149;SDS011;16962;48.646;9.026;2024-01-15T15:04:07;10.25;;;6.03;;
30149;SDS011;16962;48.646;9.026;2024-01-15T15:07:00;14.45;;;5.90;;
30149;SDS011;16962;48.646;9.026;2024-01-15T15:09:49;9.13;;;5.68;;
30149;SDS011;16962;48.646;9.026;2024-01-15T15:12:39;9.50;;;5.90;;
30149;SDS011;16962;48.646;9.026;2024-01-15T15:15:28;7.03;;;5.28;;
30149;SDS011;16962;48.646;9.026;2024-01-15T15:21:18;9.57;;;5.53;;
30149;SDS011;16962;48.646;9.026;2024-01-15T15:24:42;7.38;;;5.20;;
30149;SDS011;16962;48.646;9.026;2024-01-15T15:27:36;8.57;;;5.68;;
30149;SDS011;16962;48.646;9.026;2024-01-15T15:30:23;10.63;;;6.20;;
30149;SDS011;16962;48.646;9.026;2024-01-15T15:33:11;10.48;;;6.00;;
30149;SDS011;16962;48.646;9.026;2024-01-15T15:35:59;12.07;;;6.32;;
30149;SDS011;16962;48.646;9.026;2024-01-15T15:38:52;14.23;;;7.75;;
30149;SDS011;16962;48.646;9.026;2024-01-15T15:42:02;11.90;;;6.65;;
30149;SDS011;16962;48.646;9.026;2024-01-15T15:44:51;11.25;;;6.32;;
30149;SDS011;16962;48.646;9.026;2024-01-15T15:47:43;8.93;;;5.53;;
30149;SDS011;16962;48.646;9.026;2024-01-15T15:50:30;13.05;;;7.53;;
30149;SDS011;16962;48.646;9.026;2024-01-15T15:53:23;13.15;;;7.78;;
30149;SDS011;16962;48.646;9.026;2024-01-15T15:56:11;11.82;;;7.50;;
30149;SDS011;16962;48.646;9.026;2024-01-15T15:58:59;13.90;;;7.63;;
30149;SDS011;16962;48.646;9.026;2024-01-15T16:01:48;14.98;;;8.20;;
30149;SDS011;16962;48.646;9.026;2024-01-15T16:04:38;13.18;;;7.53;;
30149;SDS011;16962;48.646;9.026;2024-01-15T16:07:43;12.23;;;7.18;;
30149;SDS011;16962;48.646;9.026;2024-01-15T16:10:31;17.27;;;8.35;;
30149;SDS011;16962;48.646;9.026;2024-01-15T16:13:18;13.25;;;8.13;;
30149;SDS011;16962;48.646;9.026;2024-01-15T16:16:08;13.25;;;7.80;;
30149;SDS011;16962;48.646;9.026;2024-01-15T16:19:15;15.45;;;7.95;;
30149;SDS011;16962;48.646;9.026;2024-01-15T16:22:23;15.35;;;7.88;;
30149;SDS011;16962;48.646;9.026;2024-01-15T16:25:41;9.45;;;6.65;;
30149;SDS011;16962;48.646;9.026;2024-01-15T16:28:30;12.77;;;7.82;;
30149;SDS011;16962;48.646;9.026;2024-01-15T16:31:19;10.77;;;6.68;;
30149;SDS011;16962;48.646;9.026;2024-01-15T16:34:16;15.90;;;6.57;;
30149;SDS011;16962;48.646;9.026;2024-01-15T16:37:13;12.48;;;6.38;;
30149;SDS011;16962;48.646;9.026;2024-01-15T16:40:14;14.32;;;7.85;;
30149;SDS011;16962;48.646;9.026;2024-01-15T16:43:02;21.52;;;10.05;;
30149;SDS011;16962;48.646;9.026;2024-01-15T16:45:56;18.60;;;9.90;;
30149;SDS011;16962;48.646;9.026;2024-01-15T16:48:45;12.93;;;7.13;;
30149;SDS011;16962;48.646;9.026;2024-01-15T16:51:34;15.05;;;8.25;;
30149;SDS011;16962;48.646;9.026;2024-01-15T16:54:21;21.42;;;10.55;;
30149;SDS011;16962;48.646;9.026;2024-01-15T16:57:11;12.13;;;7.80;;
30149;SDS011;16962;48.646;9.026;2024-01-15T17:00:02;14.70;;;9.10;;
30149;SDS011;16962;48.646;9.026;2024-01-15T17:05:42;14.65;;;8.40;;
30149;SDS011;16962;48.646;9.026;2024-01-15T17:08:29;15.00;;;9.00;;
30149;SDS011;16962;48.646;9.026;2024-01-15T17:14:49;14.82;;;7.85;;
30149;SDS011;16962;48.646;9.026;2024-01-15T17:17:54;18.48;;;9.27;;
30149;SDS011;16962;48.646;9.026;2024-01-15T17:20:57;21.67;;;9.70;;
30149;SDS011;16962;48.646;9.026;2024-01-15T17:23:53;18.50;;;9.38;;
30149;SDS011;16962;48.646;9.026;2024-01-15T17:27:03;19.95;;;11.38;;
30149;SDS011;16962;48.646;9.026;2024-01-15T17:30:07;17.33;;;9.27;;
30149;SDS011;16962;48.646;9.026;2024-01-15T17:32:58;25.70;;;11.57;;
30149;SDS011;16962;48.646;9.026;2024-01-15T17:36:04;18.33;;;11.38;;
30149;SDS011;16962;48.646;9.026;2024-01-15T17:39:06;24.80;;;13.43;;
30149;SDS011;16962;48.646;9.026;2024-01-15T17:42:11;20.33;;;11.82;;
30149;SDS011;16962;48.646;9.026;2024-01-15T17:48:27;21.02;;;11.35;;
30149;SDS011;16962;48.646;9.026;2024-01-15T17:51:24;20.60;;;10.82;;
30149;SDS011;16962;48.646;9.026;2024-01-15T17:54:38;23.17;;;10.65;;
30149;SDS011;16962;48.646;9.026;2024-01-15T17:57:34;23.85;;;13.15;;
30149;SDS011;16962;48.646;9.026;2024-01-15T18:00:33;28.48;;;12.10;;